Time;durP1;ratioP1;P1;durP2;ratioP2;P2;SDS_P1;SDS_P2;PMS_P1;PMS_P2;Temp;Humidity;BMP_temperature;BMP_pressure;BME280_temperature;BME280_humidity;BME280_pressure;Samples;Min_cycle;Max_cycle;Signal;HPM_P1;HPM_P2
2021/12/15 00:03:56;;;;;;;25.65;9.35;;;6.60;96.60;;;;;;10143026;28;20081;-64
2021/12/15 00:08:53;;;;;;;25.70;9.50;;;6.60;96.80;;;;;;10129585;28;20054;-64
2021/12/15 00:13:45;;;;;;;25.63;9.95;;;6.50;96.70;;;;;;10146447;28;20039;-65
2021/12/15 00:18:41;;;;;;;25.73;9.02;;;6.60;96.70;;;;;;10142648;28;20078;-64
2021/12/15 00:23:31;;;;;;;24.25;8.88;;;6.60;96.70;;;;;;10130194;28;20048;-64
2021/12/15 00:28:22;;;;;;;25.23;9.52;;;6.60;96.90;;;;;;10138384;28;20036;-64
2021/12/15 00:33:13;;;;;;;27.35;9.23;;;6.50;96.80;;;;;;10147012;28;20465;-64
2021/12/15 00:38:05;;;;;;;26.75;10.13;;;6.60;96.90;;;;;;10139361;28;20133;-64
2021/12/15 00:42:57;;;;;;;23.75;9.32;;;6.60;96.90;;;;;;10118352;28;20033;-64
2021/12/15 00:47:48;;;;;;;26.33;9.95;;;6.50;96.90;;;;;;10144048;28;20024;-63
2021/12/15 00:52:41;;;;;;;25.85;8.43;;;6.60;96.90;;;;;;10133542;28;20040;-68
2021/12/15 00:57:32;;;;;;;28.48;9.27;;;6.60;96.90;;;;;;10137414;28;20028;-65
2021/12/15 01:02:22;;;;;;;21.77;9.32;;;6.70;96.70;;;;;;10140066;28;20036;-63
2021/12/15 01:07:13;;;;;;;24.85;9.07;;;6.60;96.90;;;;;;10137613;28;20050;-63
2021/12/15 01:22:08;;;;;;;32.83;10.23;;;6.80;96.70;;;;;;10131692;28;20205;-65
2021/12/15 01:26:59;;;;;;;25.98;9.50;;;6.70;96.90;;;;;;10138443;28;20078;-63
2021/12/15 01:31:50;;;;;;;26.38;8.20;;;6.70;96.90;;;;;;10129836;28;20482;-63
2021/12/15 01:36:40;;;;;;;22.98;7.70;;;6.70;96.80;;;;;;10137983;28;20020;-66
2021/12/15 01:41:32;;;;;;;24.45;9.30;;;6.80;96.90;;;;;;10126976;28;20029;-64
2021/12/15 01:51:33;;;;;;;28.25;9.38;;;6.80;97.10;;;;;;10140173;28;20523;-63
2021/12/15 01:56:24;;;;;;;23.70;9.60;;;6.70;96.90;;;;;;10140599;28;20680;-64
2021/12/15 02:01:15;;;;;;;26.52;10.98;;;6.70;96.90;;;;;;10137737;28;20033;-67
2021/12/15 02:06:09;;;;;;;29.83;10.65;;;6.80;96.80;;;;;;10134525;28;20461;-67
2021/12/15 02:11:00;;;;;;;26.05;9.38;;;6.90;96.60;;;;;;10144835;28;20051;-63
2021/12/15 02:15:55;;;;;;;30.98;9.98;;;6.80;96.60;;;;;;10139256;28;20104;-63
2021/12/15 02:20:55;;;;;;;26.48;9.55;;;6.70;96.80;;;;;;10128859;28;20024;-65
2021/12/15 02:25:47;;;;;;;27.88;11.02;;;6.80;96.70;;;;;;10123770;28;20413;-64
2021/12/15 02:30:51;;;;;;;25.20;9.18;;;6.80;96.80;;;;;;10135851;28;20198;-62
2021/12/15 02:40:52;;;;;;;24.77;8.80;;;6.60;96.90;;;;;;10104934;28;20072;-64
2021/12/15 02:45:43;;;;;;;26.27;9.00;;;6.70;96.80;;;;;;10135104;28;20376;-63
2021/12/15 02:50:36;;;;;;;29.88;9.52;;;6.70;96.70;;;;;;10125126;28;20032;-64
2021/12/15 02:55:29;;;;;;;23.15;10.05;;;6.70;96.90;;;;;;10144013;28;20020;-63
2021/12/15 03:00:24;;;;;;;27.10;9.80;;;6.70;96.90;;;;;;10147739;28;20031;-64
2021/12/15 03:05:20;;;;;;;23.20;9.02;;;6.70;96.90;;;;;;10134747;28;20036;-63
2021/12/15 03:20:17;;;;;;;32.30;12.73;;;6.70;96.90;;;;;;10139520;28;20505;-64
2021/12/15 03:25:08;;;;;;;25.60;8.82;;;6.70;96.80;;;;;;10144620;28;20028;-65
2021/12/15 03:40:33;;;;;;;30.83;9.60;;;6.50;96.90;;;;;;10134730;28;20487;-67
2021/12/15 03:45:26;;;;;;;26.23;9.30;;;6.50;96.90;;;;;;10135445;28;20483;-64
2021/12/15 03:50:19;;;;;;;23.60;10.18;;;6.70;96.90;;;;;;10139675;28;20039;-62
2021/12/15 03:55:11;;;;;;;26.63;10.30;;;6.70;96.90;;;;;;10136581;28;20047;-62
2021/12/15 04:00:08;;;;;;;23.38;11.23;;;6.60;96.90;;;;;;10148783;28;20031;-64
2021/12/15 04:04:59;;;;;;;24.08;11.80;;;6.60;96.90;;;;;;10140451;28;20097;-63
2021/12/15 04:09:52;;;;;;;30.40;10.73;;;6.60;96.90;;;;;;10140470;28;20070;-64
2021/12/15 04:14:54;;;;;;;31.40;11.90;;;6.60;97.20;;;;;;10146197;28;20114;-66
2021/12/15 04:19:45;;;;;;;35.80;10.80;;;6.60;97.00;;;;;;10131499;28;20360;-66
2021/12/15 04:24:35;;;;;;;31.88;12.20;;;6.50;97.00;;;;;;10134228;28;20037;-64
2021/12/15 04:29:29;;;;;;;32.13;11.07;;;6.50;97.10;;;;;;10144757;28;20028;-65
2021/12/15 04:34:20;;;;;;;34.28;11.00;;;6.60;97.10;;;;;;10144568;28;20097;-62
2021/12/15 04:39:15;;;;;;;39.70;14.00;;;6.60;97.10;;;;;;10139375;28;20021;-65
2021/12/15 04:44:10;;;;;;;34.22;11.43;;;6.60;97.10;;;;;;10118610;28;20028;-64
2021/12/15 04:49:05;;;;;;;28.25;9.90;;;6.60;97.00;;;;;;10139602;28;20058;-64
2021/12/15 04:53:57;;;;;;;30.30;9.70;;;6.50;97.10;;;;;;10138874;28;20044;-64
2021/12/15 04:58:49;;;;;;;29.92;10.05;;;6.50;97.30;;;;;;10134878;28;20036;-64
2021/12/15 05:03:40;;;;;;;36.08;11.95;;;6.60;97.10;;;;;;10132915;28;20502;-64
2021/12/15 05:08:31;;;;;;;30.02;9.27;;;6.60;97.20;;;;;;10140601;28;20097;-63
2021/12/15 05:13:22;;;;;;;27.50;10.52;;;6.60;97.20;;;;;;10124830;28;20631;-64
2021/12/15 05:18:14;;;;;;;31.65;11.25;;;6.60;97.10;;;;;;10128608;28;20024;-64
2021/12/15 05:23:05;;;;;;;23.90;10.95;;;6.70;97.30;;;;;;10139695;28;20141;-65
2021/12/15 05:27:56;;;;;;;33.42;10.05;;;6.70;97.20;;;;;;10139105;28;20395;-64
2021/12/15 05:32:48;;;;;;;27.48;10.95;;;6.60;97.20;;;;;;10132414;28;20067;-64
2021/12/15 05:37:38;;;;;;;25.13;9.10;;;6.60;97.30;;;;;;10135573;28;20474;-65
2021/12/15 05:42:29;;;;;;;33.00;11.07;;;6.60;97.40;;;;;;10117792;28;20036;-64
2021/12/15 05:47:22;;;;;;;34.33;11.88;;;6.70;97.40;;;;;;10124861;28;20115;-65
2021/12/15 05:52:13;;;;;;;34.85;10.10;;;6.80;97.20;;;;;;10140361;28;20480;-64
2021/12/15 05:57:04;;;;;;;26.63;9.50;;;6.80;97.20;;;;;;10146068;28;20103;-66
2021/12/15 06:01:55;;;;;;;24.50;9.25;;;6.60;97.30;;;;;;10135617;28;20096;-65
2021/12/15 06:06:46;;;;;;;18.73;8.75;;;6.60;97.30;;;;;;10139852;28;20147;-64
2021/12/15 06:11:38;;;;;;;28.83;9.95;;;6.50;97.30;;;;;;10139783;28;20044;-65
2021/12/15 06:16:29;;;;;;;22.48;8.80;;;6.60;97.40;;;;;;10132336;28;20063;-67
2021/12/15 06:21:21;;;;;;;22.67;8.05;;;6.70;97.30;;;;;;10134207;28;20548;-67
2021/12/15 06:26:12;;;;;;;25.13;8.38;;;6.60;97.30;;;;;;10131712;28;20055;-66
2021/12/15 06:31:06;;;;;;;25.77;9.38;;;6.60;97.40;;;;;;10133828;28;20369;-65
2021/12/15 06:35:59;;;;;;;25.25;10.38;;;6.60;97.30;;;;;;10135413;28;20067;-66
2021/12/15 06:40:49;;;;;;;27.02;9.57;;;6.50;97.50;;;;;;10133693;28;20035;-64
2021/12/15 06:45:55;;;;;;;22.98;10.02;;;6.70;97.50;;;;;;10127268;28;20550;-65
2021/12/15 07:01:05;;;;;;;23.92;7.45;;;6.70;97.40;;;;;;10130780;28;20040;-65
2021/12/15 07:05:56;;;;;;;28.55;8.32;;;6.70;97.40;;;;;;10129885;28;20472;-67
2021/12/15 07:10:50;;;;;;;26.77;8.80;;;6.70;97.30;;;;;;10132523;28;20177;-64
2021/12/15 07:15:44;;;;;;;18.52;7.80;;;6.60;97.30;;;;;;10134658;28;20032;-66
2021/12/15 07:20:47;;;;;;;20.52;6.38;;;6.60;97.50;;;;;;10135010;28;20427;-66
2021/12/15 07:25:41;;;;;;;18.80;7.70;;;6.60;97.50;;;;;;10127528;28;20516;-66
2021/12/15 07:30:32;;;;;;;27.67;9.15;;;6.70;97.50;;;;;;10137168;28;20199;-66
2021/12/15 07:35:23;;;;;;;20.25;6.95;;;6.60;97.40;;;;;;10125576;28;20028;-67
2021/12/15 07:40:20;;;;;;;20.30;8.02;;;6.60;97.60;;;;;;10102488;28;20157;-65
2021/12/15 07:45:12;;;;;;;22.92;8.40;;;6.70;97.40;;;;;;10123569;28;20395;-69
2021/12/15 07:50:04;;;;;;;18.67;7.38;;;6.70;97.40;;;;;;10138775;28;20115;-71
2021/12/15 07:54:55;;;;;;;21.67;7.45;;;6.60;97.70;;;;;;10125925;28;20359;-67
2021/12/15 07:59:47;;;;;;;22.25;8.75;;;6.60;97.50;;;;;;10135097;28;20016;-70
2021/12/15 08:04:38;;;;;;;16.48;7.63;;;6.60;97.50;;;;;;10134391;28;20032;-71
2021/12/15 08:09:28;;;;;;;14.85;6.55;;;6.70;97.50;;;;;;10133501;28;20040;-69
2021/12/15 08:14:19;;;;;;;17.80;8.07;;;6.70;97.50;;;;;;10133112;28;20041;-73
2021/12/15 08:19:14;;;;;;;21.75;8.85;;;6.90;97.40;;;;;;10135274;28;20020;-72
2021/12/15 08:24:05;;;;;;;23.50;9.17;;;7.00;97.30;;;;;;10133242;28;20139;-69
2021/12/15 08:28:56;;;;;;;22.85;8.80;;;6.90;97.40;;;;;;10144161;28;20058;-68
2021/12/15 08:33:47;;;;;;;27.33;8.80;;;6.90;97.30;;;;;;10137124;28;20423;-68
2021/12/15 08:38:40;;;;;;;19.95;8.27;;;7.00;97.40;;;;;;10131879;28;20096;-68
2021/12/15 08:43:31;;;;;;;18.02;7.88;;;6.90;97.50;;;;;;10133174;28;20123;-69
2021/12/15 08:48:23;;;;;;;19.20;8.05;;;6.80;97.50;;;;;;10130507;28;20139;-69
2021/12/15 08:53:15;;;;;;;19.73;7.97;;;6.90;97.60;;;;;;10134691;28;20129;-67
2021/12/15 08:58:07;;;;;;;24.40;8.02;;;6.90;97.60;;;;;;10136020;28;20040;-68
2021/12/15 09:02:58;;;;;;;19.35;7.45;;;6.90;97.60;;;;;;10134364;28;20036;-66
2021/12/15 09:07:51;;;;;;;22.38;10.50;;;6.90;97.70;;;;;;10125884;28;20024;-64
2021/12/15 09:12:41;;;;;;;25.05;10.65;;;7.10;97.60;;;;;;10129944;28;20393;-66
2021/12/15 09:17:32;;;;;;;30.10;11.20;;;7.10;97.50;;;;;;10130552;28;20133;-70
2021/12/15 09:22:23;;;;;;;38.03;11.45;;;7.00;97.80;;;;;;10140439;28;20094;-70
2021/12/15 09:27:14;;;;;;;40.05;13.98;;;6.90;97.90;;;;;;10140505;28;20032;-70
2021/12/15 09:32:04;;;;;;;40.75;16.00;;;6.90;98.00;;;;;;10131088;28;20036;-67
2021/12/15 09:36:55;;;;;;;40.30;15.15;;;6.90;97.90;;;;;;10128311;28;20021;-69
2021/12/15 09:41:48;;;;;;;40.00;13.55;;;7.00;97.80;;;;;;10129914;28;20505;-71
2021/12/15 09:57:09;;;;;;;37.70;13.32;;;7.10;97.70;;;;;;10141202;28;20031;-71
2021/12/15 10:12:24;;;;;;;25.13;9.35;;;7.20;97.80;;;;;;10139848;28;20028;-70
2021/12/15 10:22:41;;;;;;;31.92;10.63;;;7.30;97.90;;;;;;10109314;28;20052;-69
2021/12/15 10:27:40;;;;;;;29.35;10.27;;;7.30;97.80;;;;;;10125990;28;20487;-71
2021/12/15 10:32:36;;;;;;;27.58;12.57;;;7.30;97.80;;;;;;10130710;28;20142;-73
2021/12/15 10:37:26;;;;;;;24.52;9.15;;;7.40;97.80;;;;;;10127431;28;20491;-70
2021/12/15 10:42:29;;;;;;;22.83;9.48;;;7.40;97.70;;;;;;10132935;28;20029;-70
2021/12/15 10:47:23;;;;;;;23.73;9.57;;;7.30;97.90;;;;;;10127580;28;20052;-71
2021/12/15 10:52:14;;;;;;;26.95;10.48;;;7.30;98.00;;;;;;10128578;28;20033;-68
2021/12/15 10:57:09;;;;;;;31.05;11.25;;;7.30;97.90;;;;;;10133923;28;20488;-69
2021/12/15 11:02:04;;;;;;;19.98;9.77;;;7.50;97.90;;;;;;10137487;28;20810;-70
2021/12/15 11:07:15;;;;;;;25.63;9.15;;;7.30;97.90;;;;;;10125243;28;20016;-67
2021/12/15 11:12:14;;;;;;;24.08;9.45;;;7.20;98.00;;;;;;10130290;28;20041;-66
2021/12/15 11:17:20;;;;;;;27.55;9.25;;;7.20;98.00;;;;;;10132453;28;20411;-69
2021/12/15 11:22:31;;;;;;;19.20;9.02;;;7.30;98.00;;;;;;10135473;28;20041;-70
2021/12/15 11:27:22;;;;;;;15.20;7.15;;;7.40;97.90;;;;;;10135979;28;20111;-71
2021/12/15 11:32:38;;;;;;;18.33;7.57;;;7.40;97.90;;;;;;10136135;28;20099;-71
2021/12/15 11:37:45;;;;;;;21.80;8.23;;;7.50;97.90;;;;;;10138263;28;20025;-69
2021/12/15 11:42:40;;;;;;;17.80;8.80;;;7.60;97.70;;;;;;10140329;28;20025;-68
2021/12/15 11:47:33;;;;;;;27.63;8.52;;;7.60;97.70;;;;;;10133697;28;20025;-68
2021/12/15 11:52:23;;;;;;;20.30;9.30;;;7.60;97.70;;;;;;10140156;28;20521;-67
2021/12/15 11:57:29;;;;;;;18.77;7.30;;;7.70;97.70;;;;;;10138202;28;20032;-67
2021/12/15 12:02:24;;;;;;;17.70;8.75;;;7.90;97.70;;;;;;10136874;28;20122;-67
2021/12/15 12:07:26;;;;;;;19.45;7.38;;;8.00;97.50;;;;;;10131478;28;20074;-68
2021/12/15 12:12:18;;;;;;;15.68;6.88;;;8.10;97.50;;;;;;10133290;28;20102;-67
2021/12/15 12:17:13;;;;;;;18.40;6.93;;;8.20;97.20;;;;;;10143013;28;20103;-67
2021/12/15 12:22:04;;;;;;;13.02;5.20;;;8.10;97.40;;;;;;10136716;28;20056;-67
2021/12/15 12:26:54;;;;;;;11.48;5.50;;;7.90;97.40;;;;;;10135978;28;20525;-68
2021/12/15 12:31:45;;;;;;;12.07;4.60;;;7.90;97.20;;;;;;10151578;28;20046;-67
2021/12/15 12:36:37;;;;;;;15.27;6.72;;;8.00;97.30;;;;;;10145167;28;20070;-68
2021/12/15 12:41:42;;;;;;;12.18;5.82;;;7.90;97.10;;;;;;10140797;28;20105;-68
2021/12/15 13:02:34;;;;;;;13.75;6.05;;;7.90;96.90;;;;;;10131100;28;20063;-69
2021/12/15 13:07:46;;;;;;;13.10;5.82;;;7.90;96.80;;;;;;10132877;28;20838;-69
2021/12/15 13:12:39;;;;;;;16.20;7.18;;;7.70;96.60;;;;;;10131507;28;20060;-70
2021/12/15 13:17:36;;;;;;;16.00;8.10;;;7.50;97.00;;;;;;10128541;28;20039;-68
2021/12/15 13:22:42;;;;;;;15.23;6.55;;;7.60;96.80;;;;;;10133425;28;20545;-69
2021/12/15 13:33:39;;;;;;;10.55;6.25;;;7.70;96.70;;;;;;10135316;28;20071;-71
2021/12/15 13:38:34;;;;;;;17.90;8.27;;;7.60;96.70;;;;;;10126777;28;20094;-69
2021/12/15 13:43:45;;;;;;;15.57;7.47;;;7.60;96.70;;;;;;10121843;28;20021;-69
2021/12/15 13:48:57;;;;;;;14.55;6.05;;;7.70;96.60;;;;;;10128151;28;20032;-71
2021/12/15 13:53:48;;;;;;;16.88;8.05;;;7.50;96.70;;;;;;10129768;28;20048;-68
2021/12/15 13:58:39;;;;;;;20.35;9.52;;;7.60;96.70;;;;;;10128882;28;20016;-69
2021/12/15 14:03:45;;;;;;;14.00;8.02;;;7.70;96.40;;;;;;10132826;28;20052;-69
2021/12/15 14:08:46;;;;;;;16.30;7.60;;;7.60;96.50;;;;;;10133191;28;20387;-68
2021/12/15 14:13:54;;;;;;;15.15;7.55;;;7.70;96.40;;;;;;10142413;28;20047;-69
2021/12/15 14:18:45;;;;;;;15.73;7.53;;;7.80;96.20;;;;;;10132695;28;20020;-69
2021/12/15 14:23:45;;;;;;;11.98;6.82;;;7.90;96.20;;;;;;10131829;28;20048;-69
2021/12/15 14:28:43;;;;;;;14.55;7.40;;;7.90;96.10;;;;;;10127136;28;20016;-68
2021/12/15 14:33:38;;;;;;;19.40;6.97;;;7.90;96.10;;;;;;10127528;28;20060;-70
2021/12/15 14:38:36;;;;;;;18.40;9.20;;;7.90;96.40;;;;;;10130618;28;20044;-71
2021/12/15 14:43:27;;;;;;;18.52;7.05;;;7.90;96.20;;;;;;10150673;28;20032;-68
2021/12/15 14:48:19;;;;;;;15.13;6.35;;;7.90;96.30;;;;;;10124788;28;20111;-68
2021/12/15 14:53:11;;;;;;;16.63;6.80;;;7.90;96.20;;;;;;10133837;28;20033;-68
2021/12/15 14:58:02;;;;;;;14.77;6.30;;;7.90;96.20;;;;;;10115882;28;20162;-67
2021/12/15 15:02:59;;;;;;;18.33;7.82;;;7.90;96.10;;;;;;10125052;28;20135;-68
2021/12/15 15:07:53;;;;;;;17.33;7.00;;;7.90;96.20;;;;;;10142309;28;20104;-68
2021/12/15 15:12:45;;;;;;;14.18;7.57;;;7.90;96.10;;;;;;10124721;28;20028;-68
2021/12/15 15:18:06;;;;;;;17.88;7.95;;;7.90;95.90;;;;;;10121330;28;20032;-70
2021/12/15 15:23:01;;;;;;;15.25;7.57;;;7.90;96.00;;;;;;10138190;28;20041;-67
2021/12/15 15:27:56;;;;;;;15.88;7.32;;;7.90;95.90;;;;;;10133974;28;20125;-68
2021/12/15 15:32:53;;;;;;;10.82;6.18;;;7.80;95.90;;;;;;10124081;28;20040;-68
2021/12/15 15:37:45;;;;;;;12.32;6.07;;;7.80;95.90;;;;;;10125657;28;20017;-68
2021/12/15 15:42:36;;;;;;;10.05;5.90;;;7.90;95.90;;;;;;10119182;28;20173;-69
2021/12/15 15:47:27;;;;;;;11.63;5.90;;;7.90;95.80;;;;;;10128565;28;20043;-69
2021/12/15 15:52:18;;;;;;;13.27;6.32;;;7.90;95.80;;;;;;10125495;28;20045;-70
2021/12/15 15:57:09;;;;;;;14.98;5.80;;;7.90;95.70;;;;;;10127207;28;20024;-71
2021/12/15 16:02:03;;;;;;;15.63;5.72;;;7.90;95.80;;;;;;10129263;28;20127;-72
2021/12/15 16:06:54;;;;;;;11.98;5.35;;;7.90;95.70;;;;;;10137616;28;20552;-71
2021/12/15 16:11:48;;;;;;;14.50;7.03;;;7.90;95.70;;;;;;10133368;28;20055;-71
2021/12/15 16:16:55;;;;;;;17.58;8.00;;;7.90;95.60;;;;;;10133897;28;20020;-72
2021/12/15 16:26:43;;;;;;;14.70;6.37;;;8.00;95.50;;;;;;10135638;28;20119;-71
2021/12/15 16:31:37;;;;;;;15.35;6.40;;;8.00;95.60;;;;;;10148512;28;20472;-71
2021/12/15 16:36:28;;;;;;;13.60;5.72;;;8.00;95.70;;;;;;10134019;28;20036;-69
2021/12/15 16:41:28;;;;;;;12.00;6.38;;;8.00;95.70;;;;;;10120109;28;20021;-71
2021/12/15 16:46:38;;;;;;;15.77;7.35;;;8.00;95.70;;;;;;10132994;28;20051;-69
2021/12/15 16:51:30;;;;;;;18.90;6.22;;;8.10;95.50;;;;;;10138025;28;20090;-72
2021/12/15 16:56:25;;;;;;;12.35;5.30;;;8.00;95.60;;;;;;10131624;28;20036;-70
2021/12/15 17:01:17;;;;;;;9.50;5.83;;;7.90;95.70;;;;;;10138523;28;20028;-69
2021/12/15 17:06:08;;;;;;;14.43;6.25;;;7.90;95.70;;;;;;10140083;28;20021;-68
2021/12/15 17:11:08;;;;;;;13.98;6.55;;;7.90;95.70;;;;;;10143304;28;20413;-70
2021/12/15 17:16:06;;;;;;;12.82;5.32;;;8.00;95.70;;;;;;10143793;28;20083;-70
2021/12/15 17:21:02;;;;;;;8.88;5.20;;;7.90;95.60;;;;;;10135696;28;20642;-73
2021/12/15 17:25:55;;;;;;;;;;;7.90;95.60;;;;;;10124770;28;20119;-70
2021/12/15 17:30:49;;;;;;;8.45;4.38;;;7.90;95.50;;;;;;10138754;28;19915;-69
2021/12/15 17:35:40;;;;;;;11.88;5.43;;;7.90;95.50;;;;;;10135780;28;20193;-68
2021/12/15 17:40:31;;;;;;;10.32;5.40;;;7.90;95.50;;;;;;10146938;28;20032;-68
2021/12/15 17:45:25;;;;;;;102.55;48.97;;;7.90;95.50;;;;;;10125376;28;20032;-68
2021/12/15 17:50:26;;;;;;;90.85;43.40;;;8.00;95.50;;;;;;10134914;28;20047;-71
2021/12/15 17:55:25;;;;;;;15.95;9.18;;;8.20;95.30;;;;;;10133480;28;20052;-69
2021/12/15 18:00:24;;;;;;;8.88;5.85;;;8.10;95.20;;;;;;10132059;28;20029;-70
2021/12/15 18:05:17;;;;;;;9.98;5.22;;;8.00;95.40;;;;;;10137065;28;20032;-69
2021/12/15 18:10:16;;;;;;;10.02;5.70;;;7.90;95.40;;;;;;10110921;28;20074;-70
2021/12/15 18:15:07;;;;;;;6.72;4.07;;;7.90;95.40;;;;;;10117258;28;20036;-72
2021/12/15 18:19:58;;;;;;;8.18;4.60;;;7.90;95.30;;;;;;10119632;28;20104;-70
2021/12/15 18:24:49;;;;;;;6.60;3.33;;;7.90;95.30;;;;;;10118015;28;20603;-65
2021/12/15 18:29:46;;;;;;;6.95;4.03;;;7.80;95.10;;;;;;10118185;28;20477;-66
2021/12/15 18:34:37;;;;;;;7.65;4.13;;;7.80;95.20;;;;;;10112999;28;20412;-70
2021/12/15 18:39:34;;;;;;;7.05;3.60;;;7.90;95.30;;;;;;10117262;28;20185;-68
2021/12/15 18:44:26;;;;;;;10.48;3.75;;;7.90;95.20;;;;;;10104728;28;20550;-70
2021/12/15 18:49:21;;;;;;;6.68;3.83;;;7.90;95.20;;;;;;10118236;28;20078;-69
2021/12/15 18:54:13;;;;;;;8.57;4.40;;;8.00;95.10;;;;;;10122965;28;20036;-71
2021/12/15 18:59:06;;;;;;;7.53;4.28;;;7.90;95.10;;;;;;10113318;28;20071;-67
2021/12/15 19:03:57;;;;;;;5.35;3.35;;;8.00;95.00;;;;;;10116593;28;20036;-68
2021/12/15 19:08:49;;;;;;;7.50;4.68;;;8.00;95.00;;;;;;10115013;28;20024;-65
2021/12/15 19:13:40;;;;;;;9.05;4.82;;;8.00;95.00;;;;;;10114121;28;20081;-65
2021/12/15 19:18:31;;;;;;;5.55;2.92;;;8.00;94.90;;;;;;10112230;28;20352;-67
2021/12/15 19:23:23;;;;;;;7.97;4.30;;;8.00;95.10;;;;;;10108736;28;20045;-67
2021/12/15 19:28:14;;;;;;;7.43;4.15;;;7.90;95.30;;;;;;10114725;28;20029;-72
2021/12/15 19:33:07;;;;;;;7.65;3.63;;;7.90;95.10;;;;;;10115096;28;20420;-68
2021/12/15 19:37:59;;;;;;;5.22;3.50;;;7.90;94.90;;;;;;10129226;28;20536;-67
2021/12/15 19:42:50;;;;;;;5.68;3.90;;;7.90;95.00;;;;;;10123482;28;20032;-69
2021/12/15 19:47:41;;;;;;;7.20;3.55;;;7.90;95.00;;;;;;10124730;28;20024;-70
2021/12/15 19:52:32;;;;;;;5.50;3.03;;;8.00;95.00;;;;;;10133516;28;20450;-67
2021/12/15 19:57:24;;;;;;;75.53;37.00;;;7.90;94.90;;;;;;10122658;28;20025;-67
2021/12/15 20:02:15;;;;;;;66.00;34.95;;;8.00;94.90;;;;;;10128973;28;20066;-71
2021/12/15 20:07:09;;;;;;;20.35;10.27;;;8.20;95.00;;;;;;10115897;28;20033;-65
2021/12/15 20:12:03;;;;;;;10.57;5.68;;;8.00;94.80;;;;;;10123886;28;20036;-71
2021/12/15 20:16:57;;;;;;;8.15;5.22;;;8.00;94.90;;;;;;10122114;28;20098;-69
2021/12/15 20:21:48;;;;;;;7.55;5.45;;;7.90;95.20;;;;;;10125952;28;20044;-70
2021/12/15 20:26:39;;;;;;;9.35;5.68;;;7.90;94.90;;;;;;10124886;28;20093;-69
2021/12/15 20:31:29;;;;;;;7.75;5.05;;;7.90;94.90;;;;;;10124402;28;20048;-70
2021/12/15 20:36:20;;;;;;;8.57;4.65;;;7.90;94.90;;;;;;10122958;28;20391;-69
2021/12/15 20:41:12;;;;;;;8.75;4.18;;;7.90;94.90;;;;;;10114666;28;20533;-69
2021/12/15 20:46:03;;;;;;;9.82;5.03;;;7.80;95.00;;;;;;10127452;28;20032;-70
2021/12/15 20:50:57;;;;;;;9.00;4.38;;;7.90;94.90;;;;;;10113970;28;20131;-72
2021/12/15 20:55:48;;;;;;;9.10;5.00;;;7.90;94.90;;;;;;10114774;28;20025;-69
2021/12/15 21:00:41;;;;;;;9.07;5.45;;;7.90;95.00;;;;;;10109590;28;20020;-67
2021/12/15 21:05:49;;;;;;;9.02;5.30;;;7.90;94.80;;;;;;10114053;28;20107;-69
2021/12/15 21:10:46;;;;;;;6.43;4.20;;;7.90;94.90;;;;;;10119680;28;20048;-68
2021/12/15 21:15:37;;;;;;;8.70;4.47;;;7.90;94.90;;;;;;10131726;28;20289;-69
2021/12/15 21:20:29;;;;;;;9.40;4.75;;;7.80;94.90;;;;;;10119307;28;20127;-70
2021/12/15 21:25:20;;;;;;;7.95;4.82;;;7.80;95.00;;;;;;10124585;28;20534;-70
2021/12/15 21:30:20;;;;;;;8.15;5.38;;;7.80;95.00;;;;;;10115999;28;20123;-71
2021/12/15 21:35:15;;;;;;;8.05;5.20;;;7.80;94.90;;;;;;10145758;28;20049;-68
2021/12/15 21:40:06;;;;;;;8.18;5.07;;;7.90;94.80;;;;;;10131887;28;20344;-69
2021/12/15 21:44:57;;;;;;;12.43;5.85;;;7.90;94.80;;;;;;10139728;28;20286;-70
2021/12/15 21:49:48;;;;;;;9.73;5.40;;;7.90;94.90;;;;;;10134470;28;20636;-71
2021/12/15 21:54:40;;;;;;;11.18;6.30;;;7.80;94.80;;;;;;10136645;28;20067;-70
2021/12/15 21:59:32;;;;;;;11.27;5.65;;;7.90;94.90;;;;;;10127828;28;20025;-69
2021/12/15 22:04:23;;;;;;;8.15;5.38;;;8.00;94.80;;;;;;10117546;28;20039;-69
2021/12/15 22:09:16;;;;;;;11.18;5.65;;;7.90;94.90;;;;;;10129346;28;20035;-70
2021/12/15 22:14:07;;;;;;;8.90;5.47;;;7.80;94.90;;;;;;10122770;28;20128;-68
2021/12/15 22:19:02;;;;;;;10.60;5.72;;;7.80;94.80;;;;;;10123524;28;20036;-73
2021/12/15 22:24:02;;;;;;;10.27;5.60;;;7.90;94.90;;;;;;10113818;28;20146;-70
2021/12/15 22:28:55;;;;;;;11.43;5.75;;;7.80;94.80;;;;;;10117880;28;20082;-70
2021/12/15 22:33:45;;;;;;;9.98;6.05;;;7.90;94.80;;;;;;10132747;28;20062;-70
2021/12/15 22:38:36;;;;;;;8.77;5.43;;;7.90;94.90;;;;;;10118128;28;20131;-71
2021/12/15 22:43:28;;;;;;;9.80;5.30;;;8.00;94.80;;;;;;10127975;28;20426;-71
2021/12/15 22:48:19;;;;;;;10.18;5.80;;;8.00;94.70;;;;;;10113801;28;20053;-70
2021/12/15 22:53:10;;;;;;;10.38;5.57;;;7.90;94.80;;;;;;10110172;28;20064;-69
2021/12/15 22:58:01;;;;;;;7.22;4.88;;;7.80;94.90;;;;;;10110248;28;20434;-70
2021/12/15 23:02:52;;;;;;;10.02;5.57;;;7.90;94.80;;;;;;10128968;28;20024;-71
2021/12/15 23:07:43;;;;;;;14.15;5.95;;;7.90;94.80;;;;;;10114610;28;20045;-69
2021/12/15 23:12:34;;;;;;;10.15;5.03;;;7.90;94.70;;;;;;10115984;28;20037;-70
2021/12/15 23:17:30;;;;;;;11.05;4.88;;;7.90;94.70;;;;;;10124501;28;20020;-71
2021/12/15 23:22:22;;;;;;;10.30;5.50;;;8.00;94.70;;;;;;10121627;28;20333;-72
2021/12/15 23:27:12;;;;;;;9.68;4.80;;;7.90;94.70;;;;;;10126983;28;20028;-70
2021/12/15 23:32:09;;;;;;;9.88;5.30;;;7.90;94.70;;;;;;10124624;28;20033;-70
2021/12/15 23:37:00;;;;;;;7.53;4.45;;;8.00;94.70;;;;;;10124205;28;20058;-70
